Time;durP1;ratioP1;P1;durP2;ratioP2;P2;SDS_P1;SDS_P2;PMS_P1;PMS_P2;Temp;Humidity;BMP_temperature;BMP_pressure;BME280_temperature;BME280_humidity;BME280_pressure;Samples;Min_cycle;Max_cycle;Signal;HPM_P1;HPM_P2
2021/12/27 00:00:34;;;;;;;0.30;0.30;;;-4.20;99.90;;;;;;4927151;29;20715;-73
2021/12/27 00:03:02;;;;;;;0.20;0.20;;;-4.20;99.90;;;;;;4928673;29;20227;-73
2021/12/27 00:05:30;;;;;;;0.20;0.20;;;-4.20;99.90;;;;;;4926428;29;20204;-72
2021/12/27 00:07:58;;;;;;;0.30;0.30;;;-4.10;99.90;;;;;;4932794;28;20250;-73
2021/12/27 00:10:29;;;;;;;0.28;0.28;;;-4.10;99.90;;;;;;4929905;29;20229;-72
2021/12/27 00:12:58;;;;;;;0.30;0.30;;;-4.10;99.90;;;;;;4929671;29;20266;-72
2021/12/27 00:15:26;;;;;;;0.30;0.30;;;-4.00;99.90;;;;;;4930607;29;20299;-72
2021/12/27 00:17:53;;;;;;;0.30;0.30;;;-4.00;99.90;;;;;;4933792;29;20207;-73
2021/12/27 00:20:21;;;;;;;0.20;0.20;;;-4.00;99.90;;;;;;4932341;29;20222;-73
2021/12/27 00:22:49;;;;;;;0.30;0.30;;;-3.90;99.90;;;;;;4933165;29;20218;-72
2021/12/27 00:25:17;;;;;;;0.30;0.30;;;-3.90;99.90;;;;;;4933863;29;20255;-72
2021/12/27 00:27:44;;;;;;;0.30;0.30;;;-3.90;99.90;;;;;;4933350;29;20298;-74
2021/12/27 00:30:13;;;;;;;0.30;0.30;;;-3.90;99.90;;;;;;4930172;29;20266;-73
2021/12/27 00:32:43;;;;;;;0.30;0.30;;;-3.80;99.90;;;;;;4935317;29;20267;-73
2021/12/27 00:35:12;;;;;;;0.30;0.30;;;-3.80;99.90;;;;;;4935085;29;20233;-73
2021/12/27 00:37:39;;;;;;;0.20;0.20;;;-3.80;99.90;;;;;;4937182;29;20269;-73
2021/12/27 00:40:07;;;;;;;0.20;0.20;;;-3.80;99.90;;;;;;4936133;29;20203;-73
2021/12/27 00:42:34;;;;;;;0.20;0.20;;;-3.80;99.90;;;;;;4933889;29;20254;-73
2021/12/27 00:45:01;;;;;;;0.30;0.30;;;-3.70;99.90;;;;;;4931401;29;20231;-73
2021/12/27 00:47:30;;;;;;;0.20;0.20;;;-3.80;99.90;;;;;;4933968;29;20207;-73
2021/12/27 00:49:57;;;;;;;0.30;0.30;;;-3.70;99.90;;;;;;4937298;29;20317;-73
2021/12/27 00:52:24;;;;;;;0.20;0.20;;;-3.70;99.90;;;;;;4933806;29;20223;-73
2021/12/27 00:54:51;;;;;;;0.20;0.20;;;-3.70;99.90;;;;;;4934931;29;20267;-73
2021/12/27 00:57:18;;;;;;;0.25;0.25;;;-3.70;99.90;;;;;;4929109;29;20298;-73
2021/12/27 00:59:45;;;;;;;0.30;0.30;;;-3.70;99.90;;;;;;4933390;29;20342;-73
2021/12/27 01:02:12;;;;;;;0.30;0.30;;;-3.70;99.90;;;;;;4933832;29;20219;-73
2021/12/27 01:04:40;;;;;;;0.20;0.20;;;-3.70;99.90;;;;;;4935554;29;20207;-73
2021/12/27 01:07:07;;;;;;;0.30;0.30;;;-3.70;99.90;;;;;;4936579;29;20274;-73
2021/12/27 01:09:45;;;;;;;0.20;0.20;;;-3.60;99.90;;;;;;4934876;29;20242;-73
2021/12/27 01:12:28;;;;;;;0.20;0.20;;;-3.60;99.90;;;;;;4934702;29;20278;-73
2021/12/27 01:15:09;;;;;;;0.20;0.20;;;-3.60;99.90;;;;;;4931852;29;20695;-73
2021/12/27 01:17:36;;;;;;;0.20;0.20;;;-3.60;99.90;;;;;;4933197;29;20669;-73
2021/12/27 01:20:07;;;;;;;0.20;0.20;;;-3.60;99.90;;;;;;4933345;29;20303;-73
2021/12/27 01:22:34;;;;;;;0.20;0.20;;;-3.60;99.90;;;;;;4932806;29;20263;-74
2021/12/27 01:25:01;;;;;;;0.20;0.20;;;-3.50;99.90;;;;;;4933249;29;20215;-73
2021/12/27 01:27:28;;;;;;;0.20;0.20;;;-3.50;99.90;;;;;;4932579;29;20263;-73
2021/12/27 01:29:55;;;;;;;0.22;0.22;;;-3.50;99.90;;;;;;4932453;29;20208;-73
2021/12/27 01:32:24;;;;;;;0.20;0.20;;;-3.50;99.90;;;;;;4934594;29;20207;-73
2021/12/27 01:34:51;;;;;;;0.20;0.20;;;-3.50;99.90;;;;;;4932645;29;20760;-74
2021/12/27 01:37:20;;;;;;;0.30;0.30;;;-3.50;99.90;;;;;;4950236;28;20735;-73
2021/12/27 01:39:46;;;;;;;0.30;0.30;;;-3.40;99.90;;;;;;4936310;29;20199;-74
2021/12/27 01:42:13;;;;;;;0.20;0.20;;;-3.40;99.90;;;;;;4934824;29;20231;-73
2021/12/27 01:44:41;;;;;;;0.20;0.20;;;-3.40;99.90;;;;;;4936446;29;20238;-73
2021/12/27 01:47:09;;;;;;;0.20;0.20;;;-3.40;99.90;;;;;;4937548;29;20195;-73
2021/12/27 01:49:36;;;;;;;0.30;0.30;;;-3.40;99.90;;;;;;4938309;29;20736;-74
2021/12/27 01:52:08;;;;;;;0.30;0.30;;;-3.40;99.90;;;;;;4934953;29;20218;-73
2021/12/27 01:54:37;;;;;;;0.20;0.20;;;-3.40;99.90;;;;;;4932878;29;20280;-73
2021/12/27 01:57:04;;;;;;;0.20;0.20;;;-3.30;99.90;;;;;;4929809;29;20700;-73
2021/12/27 01:59:32;;;;;;;0.25;0.25;;;-3.30;99.90;;;;;;4935804;29;20215;-73
2021/12/27 02:01:59;;;;;;;0.20;0.20;;;-3.30;99.90;;;;;;4930562;29;20216;-73
2021/12/27 02:04:26;;;;;;;0.30;0.30;;;-3.30;99.90;;;;;;4935528;29;20261;-74
2021/12/27 02:06:53;;;;;;;0.20;0.20;;;-3.30;99.90;;;;;;4932380;29;20203;-73
2021/12/27 02:09:25;;;;;;;0.20;0.20;;;-3.30;99.90;;;;;;4933462;29;20199;-73
2021/12/27 02:11:54;;;;;;;0.20;0.20;;;-3.30;99.90;;;;;;4931239;29;20231;-73
2021/12/27 02:14:21;;;;;;;0.30;0.30;;;-3.30;99.90;;;;;;4932199;29;20473;-73
2021/12/27 02:16:48;;;;;;;0.30;0.30;;;-3.20;99.90;;;;;;4931654;29;20230;-73
2021/12/27 02:19:15;;;;;;;0.20;0.20;;;-3.30;99.90;;;;;;4932387;29;20215;-73
2021/12/27 02:21:43;;;;;;;0.20;0.20;;;-3.20;99.90;;;;;;4931422;29;20730;-73
2021/12/27 02:24:11;;;;;;;0.20;0.20;;;-3.20;99.90;;;;;;4933258;29;20199;-74
2021/12/27 02:26:38;;;;;;;0.30;0.30;;;-3.20;99.90;;;;;;4933506;29;20200;-73
2021/12/27 02:29:05;;;;;;;0.30;0.30;;;-3.20;99.90;;;;;;4931657;29;20222;-73
2021/12/27 02:31:37;;;;;;;0.20;0.20;;;-3.20;99.90;;;;;;4935126;29;20231;-73
2021/12/27 02:34:05;;;;;;;0.30;0.30;;;-3.20;99.90;;;;;;4929332;29;20661;-74
2021/12/27 02:36:33;;;;;;;0.20;0.20;;;-3.20;99.90;;;;;;4931561;29;20242;-73
2021/12/27 02:39:01;;;;;;;0.30;0.30;;;-3.10;99.90;;;;;;4930356;29;20207;-73
2021/12/27 02:41:28;;;;;;;0.20;0.20;;;-3.10;99.90;;;;;;4930036;29;20291;-73
2021/12/27 02:43:55;;;;;;;0.20;0.20;;;-3.10;99.90;;;;;;4936290;28;20231;-73
2021/12/27 02:46:22;;;;;;;0.28;0.28;;;-3.10;99.90;;;;;;4931691;29;20290;-73
2021/12/27 02:48:49;;;;;;;0.20;0.20;;;-3.10;99.90;;;;;;4929052;29;20207;-73
2021/12/27 02:51:18;;;;;;;0.20;0.20;;;-3.10;99.90;;;;;;4928708;29;20223;-73
2021/12/27 02:53:45;;;;;;;0.30;0.30;;;-3.10;99.90;;;;;;4933269;29;20259;-73
2021/12/27 02:56:14;;;;;;;0.20;0.20;;;-3.10;99.90;;;;;;4926406;29;20215;-73
2021/12/27 02:58:41;;;;;;;0.20;0.20;;;-3.00;99.90;;;;;;4935833;29;20215;-73
2021/12/27 03:01:11;;;;;;;0.30;0.30;;;-3.10;99.90;;;;;;4932452;29;20215;-73
2021/12/27 03:03:38;;;;;;;0.20;0.20;;;-3.00;99.90;;;;;;4933987;29;20242;-73
2021/12/27 03:06:06;;;;;;;0.20;0.20;;;-3.00;99.90;;;;;;4934909;29;20223;-73
2021/12/27 03:08:35;;;;;;;0.20;0.20;;;-3.00;99.90;;;;;;4932420;29;20235;-74
2021/12/27 03:11:04;;;;;;;0.20;0.20;;;-3.00;99.90;;;;;;4929343;29;20227;-74
2021/12/27 03:13:34;;;;;;;0.30;0.30;;;-3.00;99.90;;;;;;4936063;29;20215;-74
2021/12/27 03:16:03;;;;;;;0.20;0.20;;;-3.00;99.90;;;;;;4931083;29;20226;-74
2021/12/27 03:18:32;;;;;;;0.20;0.20;;;-3.00;99.90;;;;;;4932763;29;20242;-73
2021/12/27 03:20:59;;;;;;;0.20;0.20;;;-3.00;99.90;;;;;;4932227;29;20282;-73
2021/12/27 03:23:26;;;;;;;0.20;0.20;;;-3.00;99.90;;;;;;4932303;29;20282;-74
2021/12/27 03:25:54;;;;;;;0.20;0.20;;;-3.00;99.90;;;;;;4931849;29;20196;-73
2021/12/27 03:28:21;;;;;;;0.28;0.28;;;-3.00;99.90;;;;;;4930874;29;20294;-74
2021/12/27 03:30:50;;;;;;;0.20;0.20;;;-3.00;99.90;;;;;;4932405;29;20223;-73
2021/12/27 03:33:21;;;;;;;0.20;0.20;;;-2.90;99.90;;;;;;4937507;29;20245;-74
2021/12/27 03:35:58;;;;;;;0.25;0.25;;;-2.90;99.90;;;;;;4932142;29;20203;-73
2021/12/27 03:38:27;;;;;;;0.20;0.20;;;-2.90;99.90;;;;;;4934609;28;20230;-73
2021/12/27 03:40:54;;;;;;;0.20;0.20;;;-2.90;99.90;;;;;;4928493;29;20231;-72
2021/12/27 03:43:22;;;;;;;0.28;0.28;;;-3.00;99.90;;;;;;4934615;29;20239;-73
2021/12/27 03:45:50;;;;;;;0.20;0.20;;;-3.00;99.90;;;;;;4929039;29;20285;-74
2021/12/27 03:48:17;;;;;;;0.20;0.20;;;-2.90;99.90;;;;;;4925644;29;20218;-74
2021/12/27 03:50:44;;;;;;;0.20;0.20;;;-2.80;99.90;;;;;;4928259;29;20223;-73
2021/12/27 03:53:12;;;;;;;0.22;0.22;;;-2.90;99.90;;;;;;4928719;29;20246;-73
2021/12/27 03:55:39;;;;;;;0.20;0.20;;;-2.80;99.90;;;;;;4927777;29;20208;-73
2021/12/27 03:58:09;;;;;;;0.20;0.20;;;-2.80;99.90;;;;;;4931784;29;20196;-73
2021/12/27 04:00:59;;;;;;;0.22;0.22;;;-2.80;99.90;;;;;;4931009;29;20238;-74
2021/12/27 04:03:28;;;;;;;0.20;0.20;;;-2.80;99.90;;;;;;4926031;29;20274;-73
2021/12/27 04:05:55;;;;;;;0.20;0.20;;;-2.80;99.90;;;;;;4933383;29;20236;-73
2021/12/27 04:08:22;;;;;;;0.30;0.30;;;-2.80;99.90;;;;;;4929464;29;20207;-73
2021/12/27 04:10:50;;;;;;;0.30;0.30;;;-2.80;99.90;;;;;;4944575;28;20258;-73
2021/12/27 04:13:18;;;;;;;0.20;0.20;;;-2.70;99.90;;;;;;4930288;29;20203;-73
2021/12/27 04:15:46;;;;;;;0.20;0.20;;;-2.70;99.90;;;;;;4930058;29;20211;-74
2021/12/27 04:18:13;;;;;;;0.20;0.20;;;-2.70;99.90;;;;;;4927061;29;20692;-73
2021/12/27 04:20:41;;;;;;;0.20;0.20;;;-2.70;99.90;;;;;;4931004;29;20265;-73
2021/12/27 04:23:09;;;;;;;0.20;0.20;;;-2.70;99.90;;;;;;4928145;29;20203;-73
2021/12/27 04:25:36;;;;;;;0.22;0.22;;;-2.70;99.90;;;;;;4929786;29;20306;-73
2021/12/27 04:28:03;;;;;;;0.20;0.20;;;-2.70;99.90;;;;;;4928087;29;20206;-74
2021/12/27 04:30:30;;;;;;;0.20;0.20;;;-2.70;99.90;;;;;;4930178;29;20251;-73
2021/12/27 04:32:57;;;;;;;0.20;0.20;;;-2.60;99.90;;;;;;4933134;29;20314;-74
2021/12/27 04:35:24;;;;;;;0.20;0.20;;;-2.60;99.90;;;;;;4928528;29;20231;-74
2021/12/27 04:37:53;;;;;;;0.22;0.22;;;-2.60;99.90;;;;;;4927551;29;20290;-74
2021/12/27 04:40:24;;;;;;;0.20;0.20;;;-2.60;99.90;;;;;;4927836;29;20337;-73
2021/12/27 04:42:53;;;;;;;0.20;0.20;;;-2.60;99.90;;;;;;4931253;29;20210;-74
2021/12/27 04:45:20;;;;;;;0.20;0.20;;;-2.60;99.90;;;;;;4925744;29;20237;-73
2021/12/27 04:47:47;;;;;;;0.20;0.20;;;-2.50;99.90;;;;;;4930651;29;20207;-74
2021/12/27 04:50:16;;;;;;;0.20;0.20;;;-2.50;99.90;;;;;;4931544;29;20238;-73
2021/12/27 04:52:45;;;;;;;0.20;0.20;;;-2.50;99.90;;;;;;4932467;29;20263;-73
2021/12/27 04:55:13;;;;;;;0.28;0.28;;;-2.50;99.90;;;;;;4930068;29;20207;-74
2021/12/27 04:57:40;;;;;;;0.20;0.20;;;-2.50;99.90;;;;;;4934794;28;20238;-73
2021/12/27 05:00:09;;;;;;;0.20;0.20;;;-2.50;99.90;;;;;;4935034;29;20211;-74
2021/12/27 05:02:36;;;;;;;0.20;0.20;;;-2.50;99.90;;;;;;4930296;29;20207;-74
2021/12/27 05:05:04;;;;;;;0.20;0.20;;;-2.50;99.90;;;;;;4943251;28;20210;-73
2021/12/27 05:07:31;;;;;;;0.25;0.25;;;-2.50;99.90;;;;;;4934024;29;20235;-74
2021/12/27 05:09:58;;;;;;;0.20;0.20;;;-2.40;99.90;;;;;;4934461;29;20207;-73
2021/12/27 05:12:26;;;;;;;0.20;0.20;;;-2.40;99.90;;;;;;4936210;29;20208;-73
2021/12/27 05:14:53;;;;;;;0.20;0.20;;;-2.40;99.90;;;;;;4933197;29;20207;-74
2021/12/27 05:17:20;;;;;;;0.28;0.28;;;-2.40;99.90;;;;;;4934416;29;20215;-74
2021/12/27 05:19:47;;;;;;;0.20;0.20;;;-2.40;99.90;;;;;;4939083;29;20211;-73
2021/12/27 05:22:14;;;;;;;0.20;0.20;;;-2.40;99.90;;;;;;4933852;29;20266;-74
2021/12/27 05:24:41;;;;;;;0.20;0.20;;;-2.40;99.90;;;;;;4938917;29;20199;-74
2021/12/27 05:27:09;;;;;;;0.20;0.20;;;-2.40;99.90;;;;;;4928669;29;20626;-74
2021/12/27 05:29:37;;;;;;;0.30;0.30;;;-2.40;99.90;;;;;;4934294;28;20226;-74
2021/12/27 05:32:05;;;;;;;0.22;0.22;;;-2.30;99.90;;;;;;4931508;29;20260;-73
2021/12/27 05:34:33;;;;;;;0.20;0.20;;;-2.30;99.90;;;;;;4934573;29;20211;-74
2021/12/27 05:37:00;;;;;;;0.20;0.20;;;-2.30;99.90;;;;;;4928970;29;20215;-74
2021/12/27 05:39:27;;;;;;;0.20;0.20;;;-2.30;99.90;;;;;;4929226;29;20203;-73
2021/12/27 05:41:54;;;;;;;0.30;0.30;;;-2.30;99.90;;;;;;4933303;29;20253;-73
2021/12/27 05:44:20;;;;;;;0.25;0.25;;;-2.30;99.90;;;;;;4930742;29;20243;-74
2021/12/27 05:46:49;;;;;;;0.20;0.20;;;-2.30;99.90;;;;;;4937062;29;20203;-73
2021/12/27 05:49:16;;;;;;;0.20;0.20;;;-2.40;99.90;;;;;;4935496;29;20211;-73
2021/12/27 05:51:43;;;;;;;0.20;0.20;;;-2.30;99.90;;;;;;4936487;29;20223;-73
2021/12/27 05:54:10;;;;;;;0.20;0.20;;;-2.10;99.90;;;;;;4926981;29;20294;-74
2021/12/27 05:56:37;;;;;;;0.20;0.20;;;-2.30;99.90;;;;;;4932452;29;20203;-73
2021/12/27 05:59:04;;;;;;;0.20;0.20;;;-2.10;99.90;;;;;;4932279;29;20263;-74
2021/12/27 06:01:31;;;;;;;0.20;0.20;;;-2.30;99.90;;;;;;4934170;29;20211;-73
2021/12/27 06:03:59;;;;;;;0.20;0.20;;;-2.30;99.90;;;;;;4932705;29;20203;-74
2021/12/27 06:06:28;;;;;;;0.20;0.20;;;-2.10;99.90;;;;;;4932713;29;20203;-74
2021/12/27 06:08:54;;;;;;;0.20;0.20;;;-2.00;99.90;;;;;;4934446;29;20207;-74
2021/12/27 06:11:22;;;;;;;0.20;0.20;;;-2.10;99.90;;;;;;4933566;29;20262;-74
2021/12/27 06:13:49;;;;;;;0.20;0.20;;;-2.00;99.90;;;;;;4933170;29;20212;-74
2021/12/27 06:16:16;;;;;;;0.20;0.20;;;-2.20;99.90;;;;;;4947058;28;20270;-73
2021/12/27 06:18:43;;;;;;;0.20;0.20;;;-1.90;99.90;;;;;;4931599;29;20235;-73
2021/12/27 06:21:11;;;;;;;0.20;0.20;;;-1.90;99.90;;;;;;4930706;29;20231;-74
2021/12/27 06:23:38;;;;;;;0.20;0.20;;;-2.00;99.90;;;;;;4932132;29;20207;-74
2021/12/27 06:26:06;;;;;;;0.20;0.20;;;;;;;;;;4932316;29;20204;-73
2021/12/27 06:28:34;;;;;;;0.20;0.20;;;-2.20;99.90;;;;;;4933617;29;20290;-73
2021/12/27 06:31:02;;;;;;;0.20;0.20;;;-2.00;99.90;;;;;;4927678;29;20219;-73
2021/12/27 06:33:29;;;;;;;0.20;0.20;;;-2.10;99.90;;;;;;4935195;29;20282;-73
2021/12/27 06:35:58;;;;;;;0.20;0.20;;;-2.10;99.90;;;;;;4934969;29;20203;-74
2021/12/27 06:38:26;;;;;;;0.20;0.20;;;-2.10;99.90;;;;;;4928276;29;20314;-74
2021/12/27 06:40:53;;;;;;;0.20;0.20;;;-2.10;99.90;;;;;;4931727;29;20237;-74
2021/12/27 06:43:20;;;;;;;0.20;0.20;;;-2.10;99.90;;;;;;4934229;29;20203;-74
2021/12/27 06:45:47;;;;;;;0.30;0.30;;;-2.10;99.90;;;;;;4931761;29;20215;-74
2021/12/27 06:48:15;;;;;;;0.20;0.20;;;-2.10;99.90;;;;;;4930280;29;20199;-73
2021/12/27 06:50:43;;;;;;;0.20;0.20;;;-2.10;99.90;;;;;;4932934;29;20234;-74
2021/12/27 06:53:10;;;;;;;0.20;0.20;;;-2.10;99.90;;;;;;4933407;29;20219;-73
2021/12/27 06:55:39;;;;;;;0.20;0.20;;;-2.00;99.90;;;;;;4931518;29;20283;-73
2021/12/27 06:58:06;;;;;;;0.20;0.20;;;-2.00;99.90;;;;;;4931848;29;20219;-73
2021/12/27 07:00:33;;;;;;;0.20;0.20;;;-2.00;99.90;;;;;;4931454;29;20254;-73
2021/12/27 07:03:00;;;;;;;0.20;0.20;;;-2.00;99.90;;;;;;4928082;29;20255;-73
2021/12/27 07:05:27;;;;;;;0.20;0.20;;;-2.00;99.90;;;;;;4930540;29;20207;-73
2021/12/27 07:07:55;;;;;;;0.20;0.20;;;-2.00;99.90;;;;;;4931238;29;20218;-73
2021/12/27 07:10:22;;;;;;;0.20;0.20;;;-2.00;99.90;;;;;;4931050;29;20227;-73
2021/12/27 07:12:51;;;;;;;0.20;0.20;;;-2.00;99.90;;;;;;4948882;28;20215;-73
2021/12/27 07:15:18;;;;;;;0.20;0.20;;;-1.90;99.90;;;;;;4930811;29;20235;-73
2021/12/27 07:17:45;;;;;;;0.20;0.20;;;-1.90;99.90;;;;;;4930287;29;20286;-73
2021/12/27 07:20:13;;;;;;;0.20;0.20;;;-1.90;99.90;;;;;;4931474;29;20235;-73
2021/12/27 07:22:40;;;;;;;0.20;0.20;;;-1.90;99.90;;;;;;4931374;29;20250;-74
2021/12/27 07:25:07;;;;;;;0.20;0.20;;;;;;;;;;4929931;29;20199;-74
2021/12/27 07:27:35;;;;;;;0.20;0.20;;;-1.60;99.90;;;;;;4934238;29;20227;-74
2021/12/27 07:30:06;;;;;;;0.20;0.20;;;-2.10;99.90;;;;;;4930276;29;20208;-74
2021/12/27 07:32:33;;;;;;;0.20;0.20;;;-2.00;99.90;;;;;;4931264;29;20218;-74
2021/12/27 07:35:01;;;;;;;0.20;0.20;;;-2.00;99.90;;;;;;4931666;29;20226;-74
2021/12/27 07:37:28;;;;;;;0.20;0.20;;;-1.60;99.90;;;;;;4932378;29;20219;-74
2021/12/27 07:39:55;;;;;;;0.20;0.20;;;-1.70;99.90;;;;;;4931021;29;20297;-74
2021/12/27 07:42:22;;;;;;;0.20;0.20;;;-1.90;99.90;;;;;;4931077;29;20274;-74
2021/12/27 07:44:49;;;;;;;0.20;0.20;;;-1.40;99.90;;;;;;4930844;29;20235;-71
2021/12/27 07:47:18;;;;;;;0.20;0.20;;;-1.50;99.90;;;;;;4932427;29;20222;-69
2021/12/27 07:49:44;;;;;;;0.20;0.20;;;-1.40;99.90;;;;;;4927327;29;20207;-70
2021/12/27 07:52:12;;;;;;;0.20;0.20;;;-1.80;99.90;;;;;;4929907;28;20234;-73
2021/12/27 07:54:38;;;;;;;0.20;0.20;;;-1.50;99.90;;;;;;4932020;29;20226;-73
2021/12/27 07:57:06;;;;;;;0.20;0.20;;;-1.80;99.90;;;;;;4926936;29;20211;-73
2021/12/27 07:59:33;;;;;;;0.20;0.20;;;-1.80;99.90;;;;;;4931884;29;20207;-73
2021/12/27 08:02:00;;;;;;;0.20;0.20;;;-1.80;99.90;;;;;;4931742;29;20301;-73
2021/12/27 08:04:29;;;;;;;0.20;0.20;;;-1.70;99.90;;;;;;4930408;29;20207;-73
2021/12/27 08:06:56;;;;;;;0.20;0.20;;;-1.60;99.90;;;;;;4930334;29;20211;-73
2021/12/27 08:09:26;;;;;;;0.20;0.20;;;-1.80;99.90;;;;;;4930328;29;20207;-73
2021/12/27 08:11:53;;;;;;;0.20;0.20;;;-1.70;99.90;;;;;;4931792;29;20227;-73
2021/12/27 08:14:21;;;;;;;0.20;0.20;;;-1.40;99.90;;;;;;4928797;29;20234;-73
2021/12/27 08:16:48;;;;;;;0.20;0.20;;;-1.20;99.90;;;;;;4930355;29;20200;-73
2021/12/27 08:19:15;;;;;;;0.20;0.20;;;-1.40;99.90;;;;;;4927032;29;20290;-73
2021/12/27 08:21:44;;;;;;;0.20;0.20;;;-1.40;99.90;;;;;;4930225;29;20619;-73
2021/12/27 08:24:11;;;;;;;0.20;0.20;;;-1.60;99.90;;;;;;4929482;29;20223;-73
2021/12/27 08:26:38;;;;;;;0.20;0.20;;;-1.20;99.90;;;;;;4931946;29;20258;-73
2021/12/27 08:29:09;;;;;;;0.20;0.20;;;-1.40;99.90;;;;;;4931293;29;20207;-73
2021/12/27 08:31:36;;;;;;;0.20;0.20;;;-1.40;99.90;;;;;;4927665;29;20219;-73
2021/12/27 08:34:04;;;;;;;0.20;0.20;;;-1.30;99.90;;;;;;4933708;29;20231;-73
2021/12/27 08:36:30;;;;;;;0.20;0.20;;;-1.00;99.90;;;;;;4932317;29;20204;-73
2021/12/27 08:38:59;;;;;;;0.20;0.20;;;-0.80;99.90;;;;;;4928270;29;20318;-73
2021/12/27 08:41:27;;;;;;;0.20;0.20;;;-1.30;99.90;;;;;;4937162;29;20237;-73
2021/12/27 08:43:56;;;;;;;0.20;0.20;;;-1.20;99.90;;;;;;4939525;28;20290;-73
2021/12/27 08:46:23;;;;;;;0.20;0.20;;;-0.70;99.90;;;;;;4934515;29;20238;-74
2021/12/27 08:48:50;;;;;;;0.20;0.20;;;-1.30;99.90;;;;;;4933584;29;20300;-73
2021/12/27 08:51:17;;;;;;;0.20;0.20;;;-0.70;99.90;;;;;;4933068;29;20231;-73
2021/12/27 08:53:44;;;;;;;0.20;0.20;;;-0.60;99.90;;;;;;4937562;28;20207;-73
2021/12/27 08:56:12;;;;;;;0.20;0.20;;;-0.80;99.90;;;;;;4933695;29;20199;-73
2021/12/27 08:58:40;;;;;;;0.20;0.20;;;-1.20;99.90;;;;;;4933979;29;20693;-73
2021/12/27 09:01:07;;;;;;;0.20;0.20;;;-0.70;99.90;;;;;;4933499;29;20263;-73
2021/12/27 09:03:34;;;;;;;0.20;0.20;;;-0.40;99.90;;;;;;4933494;29;20215;-73
2021/12/27 09:06:01;;;;;;;0.20;0.20;;;-0.40;99.90;;;;;;4931672;29;20243;-73
2021/12/27 09:08:29;;;;;;;0.20;0.20;;;-0.50;99.90;;;;;;4931920;29;20239;-73
2021/12/27 09:10:58;;;;;;;0.20;0.20;;;-1.00;99.90;;;;;;4933455;29;20227;-73
2021/12/27 09:13:28;;;;;;;0.20;0.20;;;-0.90;99.90;;;;;;4933677;29;20207;-73
2021/12/27 09:15:56;;;;;;;0.20;0.20;;;-0.60;99.90;;;;;;4933580;29;20207;-73
2021/12/27 09:18:23;;;;;;;0.20;0.20;;;-0.80;99.90;;;;;;4934430;29;20243;-74
2021/12/27 09:20:50;;;;;;;0.20;0.20;;;-0.60;99.90;;;;;;4930668;29;20223;-73
2021/12/27 09:23:17;;;;;;;0.20;0.20;;;-0.40;99.90;;;;;;4933369;29;20213;-73
2021/12/27 09:25:45;;;;;;;0.25;0.25;;;-0.10;99.90;;;;;;4933428;29;20195;-73
2021/12/27 09:28:13;;;;;;;0.10;0.10;;;-0.30;99.90;;;;;;4948601;29;20214;-73
2021/12/27 09:30:42;;;;;;;0.20;0.20;;;-0.30;99.90;;;;;;4933997;29;20215;-73
2021/12/27 09:33:09;;;;;;;0.20;0.20;;;-0.50;99.90;;;;;;4929847;29;20250;-73
2021/12/27 09:35:37;;;;;;;0.20;0.20;;;-0.50;99.90;;;;;;4933984;29;20212;-73
2021/12/27 09:38:05;;;;;;;0.20;0.20;;;-0.10;99.90;;;;;;4936793;29;20243;-73
2021/12/27 09:40:32;;;;;;;0.13;0.13;;;-0.50;99.90;;;;;;4932815;29;20313;-73
2021/12/27 09:42:59;;;;;;;0.20;0.20;;;-0.40;99.90;;;;;;4949015;28;20223;-73
2021/12/27 09:45:26;;;;;;;0.20;0.20;;;-0.30;99.90;;;;;;4931064;29;20323;-73
2021/12/27 09:47:55;;;;;;;0.20;0.20;;;0.20;99.90;;;;;;4935489;29;20199;-74
2021/12/27 09:50:27;;;;;;;0.10;0.10;;;-0.10;99.90;;;;;;4929712;29;20274;-73
2021/12/27 09:52:53;;;;;;;0.10;0.10;;;-0.30;99.90;;;;;;4930325;29;20267;-72
2021/12/27 09:55:21;;;;;;;0.20;0.20;;;-0.20;99.90;;;;;;4935555;29;20211;-72
2021/12/27 09:57:48;;;;;;;0.13;0.13;;;-0.10;99.90;;;;;;4932564;29;20219;-71
2021/12/27 10:00:17;;;;;;;0.20;0.20;;;0.00;99.90;;;;;;4934766;29;20231;-71
2021/12/27 10:02:45;;;;;;;0.20;0.20;;;0.00;99.90;;;;;;4933441;29;20206;-70
2021/12/27 10:05:14;;;;;;;0.20;0.20;;;0.00;99.90;;;;;;4933771;29;20208;-69
2021/12/27 10:07:42;;;;;;;0.20;0.20;;;0.50;99.90;;;;;;4925561;29;20223;-71
2021/12/27 10:10:11;;;;;;;0.13;0.13;;;0.50;99.90;;;;;;4935249;29;20213;-71
2021/12/27 10:12:38;;;;;;;0.10;0.10;;;0.30;99.90;;;;;;4931801;29;20724;-73
2021/12/27 10:15:09;;;;;;;0.10;0.10;;;0.30;99.90;;;;;;4931742;29;20234;-72
2021/12/27 10:17:38;;;;;;;0.10;0.10;;;0.30;99.90;;;;;;4937441;29;20199;-70
2021/12/27 10:20:16;;;;;;;0.10;0.10;;;0.30;99.90;;;;;;4932950;29;20215;-71
2021/12/27 10:22:45;;;;;;;0.20;0.20;;;0.30;99.90;;;;;;4931702;29;20207;-72
2021/12/27 10:25:16;;;;;;;0.20;0.20;;;0.50;99.90;;;;;;4931165;29;20290;-72
2021/12/27 10:27:44;;;;;;;0.20;0.20;;;0.40;99.90;;;;;;4929223;29;20302;-70
2021/12/27 10:30:13;;;;;;;0.20;0.20;;;0.40;99.90;;;;;;4929039;29;20199;-70
2021/12/27 10:32:40;;;;;;;0.20;0.20;;;0.30;99.90;;;;;;4930592;29;20274;-69
2021/12/27 10:35:09;;;;;;;0.20;0.20;;;0.50;99.90;;;;;;4926466;29;20439;-69
2021/12/27 10:37:39;;;;;;;0.10;0.10;;;0.40;99.90;;;;;;4936260;28;20299;-72
2021/12/27 10:40:09;;;;;;;0.20;0.20;;;0.40;99.90;;;;;;4930718;29;20227;-73
2021/12/27 10:42:37;;;;;;;0.20;0.20;;;0.60;99.90;;;;;;4930610;29;20736;-72
2021/12/27 10:45:07;;;;;;;0.20;0.20;;;0.50;99.90;;;;;;4930092;29;20191;-72
2021/12/27 10:47:38;;;;;;;0.15;0.15;;;0.50;99.90;;;;;;4935484;29;20251;-71
2021/12/27 10:50:14;;;;;;;0.15;0.15;;;0.60;99.90;;;;;;4934109;29;20191;-72
2021/12/27 10:52:46;;;;;;;0.10;0.10;;;0.60;99.90;;;;;;4930863;29;20249;-72
2021/12/27 10:55:16;;;;;;;0.20;0.20;;;0.60;99.90;;;;;;4933036;29;20258;-72
2021/12/27 10:57:43;;;;;;;0.10;0.10;;;0.70;99.90;;;;;;4939290;28;20215;-69
2021/12/27 11:00:31;;;;;;;0.20;0.20;;;0.70;99.90;;;;;;4934150;29;20282;-71
2021/12/27 11:03:02;;;;;;;0.10;0.10;;;0.70;99.90;;;;;;4924730;29;20200;-71
2021/12/27 11:05:30;;;;;;;0.20;0.20;;;0.70;99.90;;;;;;4931309;29;20215;-71
2021/12/27 11:08:03;;;;;;;0.10;0.10;;;0.70;99.90;;;;;;4931583;29;20627;-69
2021/12/27 11:10:32;;;;;;;0.20;0.20;;;0.70;99.90;;;;;;4930966;29;20302;-70
2021/12/27 11:13:00;;;;;;;0.10;0.10;;;0.80;99.90;;;;;;4943901;28;20234;-70
2021/12/27 11:15:28;;;;;;;0.10;0.10;;;0.80;99.90;;;;;;4935138;29;20237;-71
2021/12/27 11:17:56;;;;;;;0.15;0.15;;;0.80;99.90;;;;;;4930154;29;20337;-71
2021/12/27 11:20:24;;;;;;;0.20;0.20;;;0.80;99.90;;;;;;4932156;29;20330;-71
2021/12/27 11:22:53;;;;;;;0.20;0.20;;;0.80;99.90;;;;;;4932330;29;20614;-72
2021/12/27 11:25:27;;;;;;;0.20;0.20;;;0.80;99.90;;;;;;4926543;29;20254;-71
2021/12/27 11:27:54;;;;;;;0.20;0.20;;;0.80;99.90;;;;;;4931667;29;20206;-71
2021/12/27 11:30:24;;;;;;;0.20;0.20;;;0.80;99.90;;;;;;4924782;29;20223;-71
2021/12/27 11:33:12;;;;;;;0.20;0.20;;;0.80;99.90;;;;;;4927128;29;20229;-69
2021/12/27 11:36:09;;;;;;;0.10;0.10;;;0.80;99.90;;;;;;4929256;29;20204;-71
2021/12/27 11:38:39;;;;;;;0.20;0.20;;;0.80;99.90;;;;;;4926994;29;20227;-72
2021/12/27 11:41:27;;;;;;;0.20;0.20;;;0.90;99.90;;;;;;4929458;29;20250;-71
2021/12/27 11:43:56;;;;;;;0.20;0.20;;;0.90;99.90;;;;;;4930544;28;20217;-71
2021/12/27 11:46:23;;;;;;;0.13;0.13;;;0.90;99.90;;;;;;4926253;29;20210;-72
2021/12/27 11:48:53;;;;;;;0.10;0.10;;;0.90;99.90;;;;;;4932988;29;20649;-71
2021/12/27 11:51:31;;;;;;;0.20;0.20;;;0.90;99.90;;;;;;4925057;29;20716;-72
2021/12/27 11:53:59;;;;;;;0.20;0.20;;;1.00;99.90;;;;;;4935529;29;20209;-71
2021/12/27 11:56:49;;;;;;;0.20;0.20;;;1.00;99.90;;;;;;4930562;29;20203;-71
2021/12/27 11:59:35;;;;;;;0.20;0.20;;;1.00;99.90;;;;;;4924532;29;20223;-71
2021/12/27 12:02:18;;;;;;;0.20;0.20;;;1.00;99.90;;;;;;4925593;29;20266;-73
2021/12/27 12:04:48;;;;;;;0.20;0.20;;;1.10;99.90;;;;;;4929382;29;20315;-73
2021/12/27 12:07:49;;;;;;;0.20;0.20;;;1.10;99.90;;;;;;4928443;29;20629;-73
2021/12/27 12:10:17;;;;;;;0.20;0.20;;;1.10;99.90;;;;;;4931104;29;20252;-73
2021/12/27 12:13:21;;;;;;;0.10;0.10;;;1.10;99.90;;;;;;4929898;29;20677;-74
2021/12/27 12:16:07;;;;;;;0.20;0.20;;;1.10;99.90;;;;;;4930565;29;20602;-73
2021/12/27 12:18:37;;;;;;;0.20;0.20;;;1.20;99.90;;;;;;4925271;29;20247;-73
2021/12/27 12:21:04;;;;;;;0.20;0.20;;;1.20;99.90;;;;;;4926801;29;20220;-73
2021/12/27 12:23:37;;;;;;;0.20;0.20;;;1.20;99.90;;;;;;4926136;29;20266;-73
2021/12/27 12:26:06;;;;;;;0.20;0.20;;;1.20;99.90;;;;;;4931643;29;20251;-73
2021/12/27 12:28:36;;;;;;;0.20;0.20;;;1.20;99.90;;;;;;4930566;29;20226;-73
2021/12/27 12:31:03;;;;;;;0.20;0.20;;;1.20;99.90;;;;;;4928228;29;20227;-74
2021/12/27 12:33:30;;;;;;;0.10;0.10;;;1.30;99.90;;;;;;4931198;29;21067;-73
2021/12/27 12:36:00;;;;;;;0.20;0.20;;;1.40;99.90;;;;;;4929922;29;20208;-73
2021/12/27 12:38:29;;;;;;;0.10;0.10;;;1.40;99.90;;;;;;4930525;29;20318;-73
2021/12/27 12:41:16;;;;;;;0.10;0.10;;;1.40;99.90;;;;;;4926317;29;20290;-73
2021/12/27 12:43:46;;;;;;;0.10;0.10;;;1.40;99.90;;;;;;4933836;29;20203;-73
2021/12/27 12:46:17;;;;;;;0.10;0.10;;;1.50;99.90;;;;;;4930397;29;20729;-73
2021/12/27 12:48:45;;;;;;;0.20;0.20;;;1.50;99.90;;;;;;4929353;29;20271;-74
2021/12/27 12:51:12;;;;;;;0.20;0.20;;;1.50;99.90;;;;;;4928875;29;20255;-74
2021/12/27 12:53:41;;;;;;;0.10;0.10;;;1.50;99.90;;;;;;4929527;29;20262;-75
2021/12/27 12:56:08;;;;;;;0.20;0.20;;;1.50;99.90;;;;;;4929299;29;20215;-75
2021/12/27 12:58:37;;;;;;;0.10;0.10;;;1.50;99.90;;;;;;4929165;29;20203;-74